createdAt,value
2023-05-01T00:01:43.518Z,46.44
2023-05-01T00:04:11.268Z,46.47
2023-05-01T00:06:39.066Z,46.32
2023-05-01T00:09:07.134Z,46.36
2023-05-01T00:11:37.353Z,46.47
2023-05-01T00:14:04.955Z,46.49
2023-05-01T00:16:32.495Z,46.69
2023-05-01T00:19:00.041Z,46.86
2023-05-01T00:21:28.311Z,47.00
2023-05-01T00:23:55.855Z,47.00
2023-05-01T00:26:26.183Z,46.81
2023-05-01T00:28:54.119Z,46.88
2023-05-01T00:31:21.671Z,46.80
2023-05-01T00:33:49.260Z,46.98
2023-05-01T00:36:17.006Z,47.17
2023-05-01T00:38:45.670Z,47.15
2023-05-01T00:41:13.318Z,47.31
2023-05-01T00:43:40.826Z,47.15
2023-05-01T00:46:08.798Z,46.99
2023-05-01T00:48:36.687Z,47.11
2023-05-01T00:51:07.429Z,47.37
2023-05-01T00:53:34.982Z,47.21
2023-05-01T00:56:02.629Z,47.32
2023-05-01T00:58:30.126Z,47.50
2023-05-01T01:00:58.021Z,47.29
2023-05-01T01:03:25.613Z,47.31
2023-05-01T01:06:21.679Z,46.85
2023-05-01T01:09:09.944Z,47.22
2023-05-01T01:12:02.024Z,47.22
2023-05-01T01:14:47.729Z,47.31
2023-05-01T01:17:32.119Z,47.38
2023-05-01T01:20:44.181Z,47.25
2023-05-01T01:23:35.717Z,46.98
2023-05-01T01:26:07.089Z,47.32
2023-05-01T01:29:17.131Z,47.30
2023-05-01T01:32:07.648Z,47.07
2023-05-01T01:34:44.829Z,47.40
2023-05-01T01:37:20.941Z,47.06
2023-05-01T01:40:11.469Z,47.38
2023-05-01T01:43:03.761Z,47.37
2023-05-01T01:45:42.827Z,47.30
2023-05-01T01:48:17.773Z,47.74
2023-05-01T01:50:47.535Z,47.43
2023-05-01T01:53:19.624Z,47.48
2023-05-01T01:55:50.134Z,47.51
2023-05-01T01:58:20.789Z,47.66
2023-05-01T02:00:49.679Z,47.54
2023-05-01T02:03:19.705Z,47.60
2023-05-01T02:05:50.328Z,47.60
2023-05-01T02:08:18.651Z,47.56
2023-05-01T02:10:48.122Z,47.55
2023-05-01T02:13:19.560Z,47.44
2023-05-01T02:15:48.755Z,47.44
2023-05-01T02:18:16.694Z,47.57
2023-05-01T02:20:45.290Z,47.63
2023-05-01T02:23:13.679Z,47.59
2023-05-01T02:25:42.517Z,47.72
2023-05-01T02:28:14.277Z,47.62
2023-05-01T02:30:42.585Z,47.64
2023-05-01T02:33:10.837Z,47.64
2023-05-01T02:35:49.505Z,47.71
2023-05-01T02:38:19.390Z,47.38
2023-05-01T02:40:58.262Z,47.34
2023-05-01T02:43:28.719Z,47.63
2023-05-01T02:45:59.705Z,47.71
2023-05-01T02:48:30.547Z,47.76
2023-05-01T02:50:59.957Z,47.69
2023-05-01T02:53:27.482Z,47.95
2023-05-01T02:56:04.874Z,48.13
2023-05-01T02:58:34.060Z,47.89
2023-05-01T03:01:01.776Z,47.88
2023-05-01T03:03:29.358Z,47.75
2023-05-01T03:05:57.463Z,47.99
2023-05-01T03:08:25.109Z,47.85
2023-05-01T03:10:52.607Z,48.07
2023-05-01T03:13:20.244Z,48.35
2023-05-01T03:15:48.717Z,48.33
2023-05-01T03:18:16.194Z,48.29
2023-05-01T03:20:53.453Z,48.35
2023-05-01T03:23:21.233Z,48.57
2023-05-01T03:25:49.003Z,48.59
2023-05-01T03:28:16.564Z,48.66
2023-05-01T03:30:47.279Z,48.62
2023-05-01T03:33:15.099Z,48.73
2023-05-01T03:35:42.726Z,48.70
2023-05-01T03:38:10.796Z,48.77
2023-05-01T03:40:57.999Z,48.66
2023-05-01T03:43:43.957Z,48.66
2023-05-01T03:46:37.769Z,48.79
2023-05-01T03:49:07.507Z,48.53
2023-05-01T03:51:41.625Z,48.71
2023-05-01T03:54:09.444Z,48.61
2023-05-01T03:56:52.755Z,48.63
2023-05-01T03:59:21.387Z,48.53
2023-05-01T04:01:49.523Z,48.84
2023-05-01T04:04:18.094Z,48.72
2023-05-01T04:06:51.643Z,48.82
2023-05-01T04:09:19.460Z,48.73
2023-05-01T04:11:47.115Z,48.58
2023-05-01T04:14:14.657Z,48.68
2023-05-01T04:16:42.293Z,48.83
2023-05-01T04:19:10.646Z,48.81
2023-05-01T04:21:42.626Z,48.90
2023-05-01T04:24:10.148Z,48.85
2023-05-01T04:26:38.987Z,48.93
2023-05-01T04:29:07.179Z,48.84
2023-05-01T04:31:35.134Z,48.89
2023-05-01T04:34:02.665Z,48.83
2023-05-01T04:36:32.806Z,49.00
2023-05-01T04:39:01.197Z,48.98
2023-05-01T04:41:29.840Z,49.07
2023-05-01T04:43:57.448Z,49.03
2023-05-01T04:46:25.517Z,49.20
2023-05-01T04:48:54.202Z,49.15
2023-05-01T04:51:22.438Z,49.05
2023-05-01T04:53:50.941Z,49.11
2023-05-01T04:56:23.146Z,49.08
2023-05-01T04:58:54.784Z,48.87
2023-05-01T05:01:25.123Z,48.88
2023-05-01T05:03:53.282Z,48.75
2023-05-01T05:06:21.555Z,48.83
2023-05-01T05:08:51.868Z,48.71
2023-05-01T05:11:19.764Z,48.52
2023-05-01T05:13:57.884Z,48.44
2023-05-01T05:16:25.682Z,48.49
2023-05-01T05:18:57.251Z,48.37
2023-05-01T05:21:26.781Z,48.20
2023-05-01T05:23:56.558Z,48.18
2023-05-01T05:26:24.880Z,48.18
2023-05-01T05:28:52.700Z,48.30
2023-05-01T05:31:20.586Z,48.07
2023-05-01T05:33:48.165Z,48.18
2023-05-01T05:36:17.205Z,48.11
2023-05-01T05:38:45.744Z,48.08
2023-05-01T05:41:17.663Z,47.93
2023-05-01T05:43:45.864Z,47.75
2023-05-01T05:46:13.517Z,47.86
2023-05-01T05:48:42.438Z,47.93
2023-05-01T05:51:10.684Z,48.02
2023-05-01T05:53:38.478Z,48.08
2023-05-01T05:56:06.665Z,48.17
2023-05-01T05:58:34.679Z,48.53
2023-05-01T06:01:02.299Z,48.22
2023-05-01T06:03:30.036Z,48.39
2023-05-01T06:06:01.931Z,48.65
2023-05-01T06:08:29.535Z,48.71
2023-05-01T06:10:58.846Z,48.66
2023-05-01T06:13:27.854Z,48.33
2023-05-01T06:15:55.469Z,48.74
2023-05-01T06:18:23.258Z,48.88
2023-05-01T06:20:51.073Z,48.67
2023-05-01T06:23:18.857Z,48.78
2023-05-01T06:26:04.886Z,48.44
2023-05-01T06:28:32.582Z,48.29
2023-05-01T06:31:00.112Z,48.06
2023-05-01T06:33:28.297Z,48.03
2023-05-01T06:36:16.686Z,48.27
2023-05-01T06:38:48.570Z,48.35
2023-05-01T06:41:16.981Z,48.05
2023-05-01T06:43:45.780Z,47.84
2023-05-01T06:46:13.442Z,48.17
2023-05-01T06:48:41.448Z,48.45
2023-05-01T06:51:08.982Z,48.00
2023-05-01T06:53:37.480Z,47.98
2023-05-01T06:56:05.349Z,48.23
2023-05-01T06:58:33.064Z,47.88
2023-05-01T07:01:00.935Z,48.14
2023-05-01T07:03:28.660Z,48.03
2023-05-01T07:05:56.320Z,48.19
2023-05-01T07:08:24.210Z,47.86
2023-05-01T07:10:51.798Z,47.83
2023-05-01T07:13:19.652Z,47.39
2023-05-01T07:15:47.459Z,47.24
2023-05-01T07:18:15.036Z,47.44
2023-05-01T07:20:42.784Z,46.91
2023-05-01T07:23:10.305Z,46.79
2023-05-01T07:25:37.867Z,47.36
2023-05-01T07:28:05.425Z,46.82
2023-05-01T07:30:33.334Z,46.93
2023-05-01T07:33:00.880Z,46.74
2023-05-01T07:35:28.687Z,46.58
2023-05-01T07:37:56.159Z,47.35
2023-05-01T07:40:23.685Z,47.23
2023-05-01T07:42:53.842Z,46.92
2023-05-01T07:45:22.073Z,46.94
2023-05-01T07:47:49.970Z,46.81
2023-05-01T07:50:17.616Z,46.91
2023-05-01T07:52:45.340Z,46.78
2023-05-01T07:55:12.933Z,46.60
2023-05-01T07:57:40.639Z,47.08
2023-05-01T08:01:00.517Z,46.78
2023-05-01T08:03:29.953Z,46.48
2023-05-01T08:05:58.094Z,46.55
2023-05-01T08:08:25.699Z,46.50
2023-05-01T08:10:53.382Z,46.38
2023-05-01T08:13:20.931Z,46.36
2023-05-01T08:15:48.778Z,46.07
2023-05-01T08:18:20.309Z,45.98
2023-05-01T08:20:49.059Z,46.15
2023-05-01T08:23:17.392Z,45.68
2023-05-01T08:25:51.162Z,45.67
2023-05-01T08:28:21.289Z,45.29
2023-05-01T08:30:51.793Z,45.21
2023-05-01T08:33:19.504Z,45.18
2023-05-01T08:35:47.071Z,45.18
2023-05-01T08:38:14.728Z,45.18
2023-05-01T08:40:51.178Z,45.44
2023-05-01T08:43:19.164Z,45.19
2023-05-01T08:45:48.908Z,45.00
2023-05-01T08:48:18.564Z,45.17
2023-05-01T08:50:47.845Z,45.06
2023-05-01T08:53:22.162Z,44.98
2023-05-01T08:55:52.090Z,44.80
2023-05-01T08:58:20.793Z,44.58
2023-05-01T09:00:48.790Z,44.60
2023-05-01T09:03:17.948Z,44.67
2023-05-01T09:05:47.008Z,44.71
2023-05-01T09:08:14.979Z,44.73
2023-05-01T09:10:48.042Z,44.52
2023-05-01T09:13:15.723Z,44.38
2023-05-01T09:15:43.243Z,44.60
2023-05-01T09:18:11.910Z,44.61
2023-05-01T09:20:40.280Z,44.63
2023-05-01T09:23:08.708Z,44.41
2023-05-01T09:25:36.255Z,44.21
2023-05-01T09:28:06.888Z,44.31
2023-05-01T09:30:38.251Z,44.21
2023-05-01T09:33:06.441Z,44.14
2023-05-01T09:35:55.511Z,44.15
2023-05-01T09:38:29.008Z,43.58
2023-05-01T09:41:05.163Z,43.99
2023-05-01T09:43:32.730Z,43.87
2023-05-01T09:46:09.679Z,43.93
2023-05-01T09:48:37.972Z,43.80
2023-05-01T09:51:33.055Z,43.95
2023-05-01T09:54:04.942Z,43.59
2023-05-01T09:56:34.354Z,43.64
2023-05-01T09:59:21.410Z,43.76
2023-05-01T10:01:50.524Z,43.43
2023-05-01T10:04:29.494Z,43.11
2023-05-01T10:06:57.189Z,43.12
2023-05-01T10:09:30.806Z,43.37
2023-05-01T10:11:59.002Z,43.29
2023-05-01T10:14:28.146Z,43.05
2023-05-01T10:16:59.206Z,43.23
2023-05-01T10:19:26.862Z,42.74
2023-05-01T10:21:54.784Z,42.30
2023-05-01T10:24:22.520Z,41.84
2023-05-01T10:26:51.136Z,41.87
2023-05-01T10:29:23.256Z,41.92
2023-05-01T10:31:50.867Z,42.28
2023-05-01T10:34:22.056Z,41.83
2023-05-01T10:37:04.250Z,41.57
2023-05-01T10:39:33.733Z,41.05
2023-05-01T10:42:05.468Z,41.32
2023-05-01T10:44:34.853Z,41.33
2023-05-01T10:47:24.608Z,41.54
2023-05-01T10:50:17.686Z,41.78
2023-05-01T10:53:09.979Z,42.14
2023-05-01T10:55:39.614Z,42.22
2023-05-01T10:58:07.106Z,42.09
2023-05-01T11:00:34.694Z,41.89
2023-05-01T11:03:24.270Z,41.52
2023-05-01T11:06:01.298Z,41.09
2023-05-01T11:08:33.724Z,41.20
2023-05-01T11:11:27.344Z,41.21
2023-05-01T11:14:10.994Z,41.50
2023-05-01T11:16:42.021Z,41.08
2023-05-01T11:19:23.118Z,40.81
2023-05-01T11:21:51.097Z,40.92
2023-05-01T11:24:18.842Z,41.00
2023-05-01T11:26:47.319Z,41.28
2023-05-01T11:29:14.810Z,41.01
2023-05-01T11:31:42.488Z,41.09
2023-05-01T11:34:10.438Z,41.13
2023-05-01T11:36:49.528Z,41.43
2023-05-01T11:39:17.665Z,41.05
2023-05-01T11:41:46.335Z,40.88
2023-05-01T11:44:18.395Z,41.69
2023-05-01T11:46:46.060Z,41.50
2023-05-01T11:49:14.484Z,41.45
2023-05-01T11:51:42.076Z,41.69
2023-05-01T11:54:13.765Z,42.07
2023-05-01T11:56:43.137Z,42.63
2023-05-01T11:59:19.165Z,42.42
2023-05-01T12:01:47.375Z,42.38
2023-05-01T12:04:31.654Z,42.93
2023-05-01T12:06:59.990Z,42.90
2023-05-01T12:09:28.661Z,43.04
2023-05-01T12:11:59.767Z,42.62
2023-05-01T12:14:27.741Z,42.07
2023-05-01T12:16:55.548Z,41.56
2023-05-01T12:19:25.011Z,41.71
2023-05-01T12:22:08.733Z,41.25
2023-05-01T12:24:37.664Z,41.28
2023-05-01T12:27:07.145Z,41.91
2023-05-01T12:29:42.970Z,41.29
2023-05-01T12:32:10.952Z,41.81
2023-05-01T12:34:39.788Z,42.37
2023-05-01T12:37:07.814Z,41.76
2023-05-01T12:39:44.606Z,41.80
2023-05-01T12:42:14.510Z,41.50
2023-05-01T12:44:43.389Z,41.11
2023-05-01T12:47:12.852Z,40.82
2023-05-01T12:49:41.463Z,41.04
2023-05-01T12:52:09.668Z,40.42
2023-05-01T12:54:39.909Z,41.05
2023-05-01T12:57:17.871Z,40.83
2023-05-01T12:59:46.861Z,40.16
2023-05-01T13:02:17.712Z,40.10
2023-05-01T13:04:48.999Z,40.08
2023-05-01T13:07:19.301Z,40.58
2023-05-01T13:09:55.632Z,40.31
2023-05-01T13:12:24.838Z,40.75
2023-05-01T13:14:53.188Z,40.95
2023-05-01T13:17:26.388Z,40.91
2023-05-01T13:19:59.712Z,40.95
2023-05-01T13:22:39.728Z,41.10
2023-05-01T13:25:25.788Z,40.22
2023-05-01T13:27:53.964Z,40.09
2023-05-01T13:30:32.787Z,39.65
2023-05-01T13:33:01.772Z,39.49
2023-05-01T13:35:30.674Z,39.87
2023-05-01T13:37:58.192Z,39.65
2023-05-01T13:40:27.599Z,39.32
2023-05-01T13:42:55.128Z,39.53
2023-05-01T13:45:22.783Z,39.67
2023-05-01T13:47:51.899Z,40.24
2023-05-01T13:50:19.740Z,40.05
2023-05-01T13:52:48.346Z,39.91
2023-05-01T13:55:17.565Z,40.02
2023-05-01T13:57:45.088Z,39.90
2023-05-01T14:00:18.045Z,40.18
2023-05-01T14:02:48.718Z,39.87
2023-05-01T14:05:19.030Z,39.80
2023-05-01T14:07:58.339Z,39.70
2023-05-01T14:10:28.899Z,39.66
2023-05-01T14:12:58.613Z,39.51
2023-05-01T14:15:26.606Z,39.38
2023-05-01T14:17:54.169Z,39.13
2023-05-01T14:20:26.841Z,38.47
2023-05-01T14:22:54.614Z,38.87
2023-05-01T14:25:30.583Z,39.35
2023-05-01T14:28:00.944Z,39.38
2023-05-01T14:30:39.689Z,39.06
2023-05-01T14:33:11.065Z,38.41
2023-05-01T14:35:51.997Z,38.93
2023-05-01T14:38:21.389Z,38.47
2023-05-01T14:40:49.148Z,39.18
2023-05-01T14:43:19.520Z,39.48
2023-05-01T14:45:49.152Z,39.23
2023-05-01T14:48:33.769Z,39.19
2023-05-01T14:51:02.114Z,39.35
2023-05-01T14:53:33.128Z,39.52
2023-05-01T14:56:00.762Z,39.39
2023-05-01T14:58:28.363Z,39.15
2023-05-01T15:00:55.922Z,39.31
2023-05-01T15:03:23.543Z,39.78
2023-05-01T15:05:51.192Z,39.84
2023-05-01T15:08:18.753Z,39.50
2023-05-01T15:10:46.555Z,39.79
2023-05-01T15:13:14.181Z,39.35
2023-05-01T15:15:41.665Z,40.01
2023-05-01T15:18:09.353Z,39.66
2023-05-01T15:20:37.646Z,39.69
2023-05-01T15:23:05.165Z,39.37
2023-05-01T15:25:32.674Z,39.37
2023-05-01T15:28:00.167Z,39.62
2023-05-01T15:30:27.715Z,39.27
2023-05-01T15:32:55.784Z,39.66
2023-05-01T15:35:23.783Z,39.43
2023-05-01T15:37:51.386Z,39.78
2023-05-01T15:40:19.262Z,39.83
2023-05-01T15:42:48.060Z,39.64
2023-05-01T15:45:15.694Z,39.98
2023-05-01T15:47:43.239Z,39.87
2023-05-01T15:50:11.955Z,40.05
2023-05-01T15:52:39.971Z,40.04
2023-05-01T15:55:07.969Z,40.35
2023-05-01T15:57:35.671Z,41.12
2023-05-01T16:00:04.458Z,42.34
2023-05-01T16:02:32.638Z,42.26
2023-05-01T16:05:00.796Z,42.89
2023-05-01T16:07:29.671Z,42.94
2023-05-01T16:09:58.349Z,43.55
2023-05-01T16:12:30.009Z,43.06
2023-05-01T16:14:57.506Z,46.25
2023-05-01T16:17:25.012Z,48.53
2023-05-01T16:19:52.883Z,51.29
2023-05-01T16:22:21.242Z,52.60
2023-05-01T16:24:49.007Z,53.67
2023-05-01T16:27:18.387Z,53.15
2023-05-01T16:29:45.895Z,53.72
2023-05-01T16:32:16.478Z,55.34
2023-05-01T16:34:44.469Z,55.78
2023-05-01T16:37:15.021Z,55.94
2023-05-01T16:39:42.829Z,56.19
2023-05-01T16:42:13.182Z,56.38
2023-05-01T16:44:41.303Z,56.18
2023-05-01T16:47:11.872Z,56.57
2023-05-01T16:49:42.188Z,55.99
2023-05-01T16:52:13.952Z,55.54
2023-05-01T16:54:41.598Z,55.92
2023-05-01T16:57:09.172Z,56.22
2023-05-01T16:59:37.732Z,56.24
2023-05-01T17:02:06.445Z,55.89
2023-05-01T17:04:34.131Z,55.92
2023-05-01T17:07:01.690Z,55.91
2023-05-01T17:09:29.266Z,55.69
2023-05-01T17:11:58.875Z,55.50
2023-05-01T17:14:28.574Z,55.64
2023-05-01T17:16:58.657Z,55.68
2023-05-01T17:19:26.388Z,56.05
2023-05-01T17:21:53.931Z,56.21
2023-05-01T17:24:22.439Z,55.93
2023-05-01T17:26:50.034Z,55.49
2023-05-01T17:29:17.553Z,55.16
2023-05-01T17:31:45.496Z,54.92
2023-05-01T17:34:13.135Z,54.88
2023-05-01T17:36:40.921Z,54.48
2023-05-01T17:39:08.427Z,54.37
2023-05-01T17:41:36.074Z,54.58
2023-05-01T17:44:03.583Z,54.64
2023-05-01T17:46:31.620Z,55.05
2023-05-01T17:48:59.212Z,55.41
2023-05-01T17:51:27.358Z,55.77
2023-05-01T17:53:54.833Z,55.14
2023-05-01T17:56:22.517Z,55.10
2023-05-01T17:58:50.006Z,55.14
2023-05-01T18:01:17.572Z,55.27
2023-05-01T18:03:45.189Z,55.21
2023-05-01T18:06:12.945Z,55.25
2023-05-01T18:08:41.329Z,55.48
2023-05-01T18:11:09.417Z,55.26
2023-05-01T18:13:39.773Z,55.00
2023-05-01T18:16:07.527Z,54.88
2023-05-01T18:18:35.135Z,54.99
2023-05-01T18:21:03.222Z,54.93
2023-05-01T18:23:30.695Z,55.16
2023-05-01T18:25:58.587Z,54.67
2023-05-01T18:28:26.636Z,54.73
2023-05-01T18:30:54.737Z,55.18
2023-05-01T18:33:22.484Z,55.04
2023-05-01T18:35:50.145Z,54.94
2023-05-01T18:38:17.678Z,55.23
2023-05-01T18:40:45.371Z,55.07
2023-05-01T18:43:14.069Z,55.18
2023-05-01T18:45:41.628Z,55.11
2023-05-01T18:48:09.231Z,55.14
2023-05-01T18:50:36.811Z,54.98
2023-05-01T18:53:04.327Z,55.21
2023-05-01T18:55:33.033Z,54.91
2023-05-01T18:58:01.885Z,54.79
2023-05-01T19:00:30.558Z,54.94
2023-05-01T19:02:58.112Z,54.74
2023-05-01T19:05:25.926Z,54.82
2023-05-01T19:07:55.965Z,54.86
2023-05-01T19:10:23.498Z,55.04
2023-05-01T19:12:50.992Z,55.18
2023-05-01T19:15:18.469Z,55.49
2023-05-01T19:17:46.108Z,55.15
2023-05-01T19:20:13.625Z,55.40
2023-05-01T19:22:41.097Z,55.42
2023-05-01T19:25:09.378Z,55.53
2023-05-01T19:27:37.124Z,55.43
2023-05-01T19:30:06.890Z,55.51
2023-05-01T19:32:34.729Z,55.55
2023-05-01T19:35:02.468Z,55.46
2023-05-01T19:37:30.030Z,55.48
2023-05-01T19:39:57.745Z,55.31
2023-05-01T19:42:25.482Z,55.46
2023-05-01T19:44:53.007Z,55.45
2023-05-01T19:47:20.918Z,55.66
2023-05-01T19:49:48.454Z,55.66
2023-05-01T19:52:15.913Z,55.81
2023-05-01T19:54:44.660Z,56.04
2023-05-01T19:57:12.881Z,55.88
2023-05-01T19:59:41.198Z,56.04
2023-05-01T20:02:08.978Z,56.17
2023-05-01T20:04:36.544Z,56.23
2023-05-01T20:07:04.588Z,56.11
2023-05-01T20:09:32.259Z,55.94
2023-05-01T20:11:59.737Z,56.25
2023-05-01T20:14:27.807Z,56.33
2023-05-01T20:16:55.600Z,56.75
2023-05-01T20:19:23.241Z,56.37
2023-05-01T20:21:50.731Z,56.25
2023-05-01T20:24:18.297Z,56.33
2023-05-01T20:26:45.795Z,56.22
2023-05-01T20:29:13.563Z,56.04
2023-05-01T20:31:41.079Z,56.19
2023-05-01T20:34:08.684Z,56.29
2023-05-01T20:36:36.220Z,56.22
2023-05-01T20:39:03.900Z,56.07
2023-05-01T20:41:31.419Z,56.40
2023-05-01T20:43:58.925Z,56.37
2023-05-01T20:46:26.734Z,56.33
2023-05-01T20:48:54.370Z,56.35
2023-05-01T20:51:22.032Z,56.08
2023-05-01T20:53:49.660Z,55.98
2023-05-01T20:56:17.215Z,56.04
2023-05-01T20:58:44.973Z,55.90
2023-05-01T21:01:12.537Z,56.18
2023-05-01T21:03:40.574Z,56.17
2023-05-01T21:06:08.172Z,56.26
2023-05-01T21:08:35.729Z,56.39
2023-05-01T21:11:03.197Z,56.15
2023-05-01T21:13:31.762Z,56.17
2023-05-01T21:15:59.633Z,56.19
2023-05-01T21:18:32.014Z,56.28
2023-05-01T21:21:02.309Z,56.08
2023-05-01T21:23:30.294Z,56.13
2023-05-01T21:25:57.853Z,56.05
2023-05-01T21:28:25.453Z,56.08
2023-05-01T21:30:53.831Z,56.10
2023-05-01T21:33:21.468Z,56.01
2023-05-01T21:35:49.652Z,55.98
2023-05-01T21:38:17.149Z,56.05
2023-05-01T21:40:46.178Z,56.30
2023-05-01T21:43:13.845Z,56.35
2023-05-01T21:45:44.867Z,56.40
2023-05-01T21:48:16.202Z,56.28
2023-05-01T21:50:47.690Z,56.20
2023-05-01T21:53:16.285Z,56.14
2023-05-01T21:55:46.699Z,56.02
2023-05-01T21:58:14.230Z,56.22
2023-05-01T22:00:42.027Z,56.25
2023-05-01T22:03:10.490Z,56.27
2023-05-01T22:05:40.905Z,56.21
2023-05-01T22:08:09.065Z,56.02
2023-05-01T22:10:37.102Z,56.24
2023-05-01T22:13:06.151Z,56.23
2023-05-01T22:15:33.725Z,56.23
2023-05-01T22:18:01.272Z,56.23
2023-05-01T22:20:28.949Z,56.01
2023-05-01T22:22:56.458Z,55.99
2023-05-01T22:25:23.994Z,56.06
2023-05-01T22:27:51.453Z,56.12
2023-05-01T22:30:18.953Z,55.83
2023-05-01T22:32:46.517Z,56.02
2023-05-01T22:35:14.141Z,56.11
2023-05-01T22:37:41.620Z,55.94
2023-05-01T22:40:09.738Z,55.83
2023-05-01T22:42:37.248Z,55.86
2023-05-01T22:45:05.355Z,55.84
2023-05-01T22:47:32.852Z,55.97
2023-05-01T22:50:01.463Z,55.78
2023-05-01T22:52:29.316Z,55.69
2023-05-01T22:54:56.836Z,55.63
2023-05-01T22:57:24.352Z,55.49
2023-05-01T22:59:51.926Z,55.51
2023-05-01T23:02:19.615Z,55.46
2023-05-01T23:04:47.485Z,55.32
2023-05-01T23:07:15.294Z,55.51
2023-05-01T23:09:43.001Z,55.77
2023-05-01T23:12:23.431Z,55.73
2023-05-01T23:14:51.202Z,55.60
2023-05-01T23:17:18.772Z,55.88
2023-05-01T23:19:46.482Z,55.95
2023-05-01T23:22:14.237Z,55.89
2023-05-01T23:24:50.711Z,56.09
2023-05-01T23:27:19.885Z,55.84
2023-05-01T23:29:58.378Z,55.71
2023-05-01T23:32:31.746Z,55.63
2023-05-01T23:35:19.262Z,55.67
2023-05-01T23:37:46.761Z,55.58
2023-05-01T23:40:14.334Z,55.76
2023-05-01T23:42:41.905Z,55.73
2023-05-01T23:45:09.633Z,55.80
2023-05-01T23:47:38.695Z,55.80
2023-05-01T23:50:07.030Z,55.72
2023-05-01T23:52:34.618Z,55.78
2023-05-01T23:55:02.262Z,55.81
2023-05-01T23:57:29.748Z,55.79
2023-05-01T23:59:57.420Z,55.65
